Главная страница
METAR-TAF:

METAR-TAF

Аэропорты :

Международный аэропорт имени Амани Диори

Ниамей, Нигер

широта: 13-29N, долгота: 002-10E, высота над уровнем моря: 223 м

Текущие метеонаблюдения

Эта сводка был подготовлена 26 минут назад, в 02:00 UTC
Ветер 3 Узел от северно-северо-западный
Температура 27°C
Влажность 8%
Давление 1008 hPa
Видимость 10 км и более
Нет облачности ниже 1500 м, и нет кучево-дождевой облачности

METAR: DRRN 240200Z 34003KT CAVOK 27/M10 Q1008 NOSIG

Время: 03:26 (02:26 UTC)

Прогноз

Эта сводка был подготовлена 3 часа и 26 минут назад, в 23:00 UTC
Прогноз действительный с 24-го 00 UTC до 25-го 06 UTC
Ветер 8 Узел от северно-северо-западный
Видимость: 8000 м
временами
С 24-го 06 UTC до 24-го 09 UTC
Видимость: 4000 м
пыль, взвешенная над обширной территорией

TAF: DRRN 232300Z 2400/2506 34008KT 8000 NSC TEMPO 2406/2409 4000 DU

Метеонаблюдения и прогнозы для более 4000 аэропортов (сводки METAR и TAF).

Имеющиеся станции представлены на карте желтыми и красными точками.

Чтобы увидеть название станции, наведите на нее мышь.

Затем щелкните, чтобы увидеть метеонаблюдения и метеопрогнозы.

Управление картой: чтобы увеличить масштаб, щелкните зеленые кнопки с черным крестиком; чтобы уменьшить масштаб, щелкните зеленую кнопку с тире; для просмотра соседних карт щелкайте зеленые стрелки.


METAR-TAF: